Accueil
METAR-TAF:

METAR-TAF

Aéroports :

Ocala International Airport (Jim Taylor Field)

Ocala, Floride, États-Unis

latitude: 29-10N, longitude: 082-13W, altitude: 27 m

Observation

Le bulletin a été fait il y a 20 minutes, à 14:51 UTC
Vent 12 kt de est avec des rafales jusqu'à 17 kt
Température 29°C
Humidité 66%
Pression 1022 hPa
Visibilité: 16.1 km
Nuages épars à une hauteur de 3100 ft

METAR: KOCF 021451Z 09012G17KT 10SM SCT031 29/22 A3017 RMK AO2 SLP214 T02940217 50001 $

Heure: 11:11 (15:11 UTC)


TAF: absent

Observations et prévisions météorologiques de plus de 4000 aéroports (messages METAR et TAF).

Les stations disponibles sont représentées par des disques jaunes et rouges sur la carte.

Passer la souris dessus pour voir le nom de la station.

Cliquer dessus pour voir les observations et prévisions météorologiques.

Pour changer de carte: cliquez sur les boutons verts avec une croix noire pour zoomer, sur le bouton vert avec un tiret pour effectuer un zoom arrière, ou sur les flèches vertes pour les cartes adjacentes.


METAR-TAF: